METAR Data
IDs: Format: Raw Decoded Include TAF

Data at: 2335 UTC 25 Oct 2021

KMAF 252253Z 21009KT 10SM CLR 31/03 A2992 RMK AO2 SLP091 T03110028
KMAF 252153Z 21009KT 10SM CLR 32/03 A2993 RMK AO2 SLP090 T03170028
KMAF 252053Z VRB06KT 8SM CLR 31/03 A2994 RMK AO2 SLP095 T03110028 56023
KMAF 251953Z 24005KT 9SM CLR 31/03 A2996 RMK AO2 SLP102 T03110033
KMAF 251853Z 22007KT 9SM CLR 31/03 A2998 RMK AO2 SLP111 T03060028
KMAF 251753Z 21008KT 8SM CLR 29/03 A3001 RMK AO2 SLP121 T02940028 10300 20106 58004
KMAF 251653Z 19006KT 10SM CLR 27/02 A3002 RMK AO2 SLP125 T02720022
KMAF 251553Z 22006KT 9SM CLR 25/02 A3002 RMK AO2 SLP126 T02500022
KMAF 251453Z 24004KT 8SM CLR 23/02 A3003 RMK AO2 SLP132 T02280022 53008
KMAF 251353Z 00000KT 5SM HZ CLR 15/02 A3002 RMK AO2 SLP131 T01500022
KMAF 251253Z 29004KT 8SM CLR 12/01 A3001 RMK AO2 SLP129 T01220011
KMAF 251153Z 30004KT 10SM CLR 11/01 A3000 RMK AO2 SLP124 T01060011 10161 20106 53006
KMAF 251053Z 30003KT 10SM CLR 12/02 A2999 RMK AO2 SLP119 T01170017
KMAF 250953Z AUTO 23005KT 10SM CLR 16/02 A2999 RMK AO2 SLP111 T01560017
KMAF 250853Z AUTO 00000KT 9SM CLR 15/02 A2998 RMK AO2 SLP111 T01500022 53000
KMAF 250753Z AUTO 00000KT 9SM CLR 14/02 A2998 RMK AO2 SLP112 T01390017
KMAF 250653Z AUTO 00000KT 10SM CLR 14/02 A2998 RMK AO2 SLP112 T01440017
KMAF 250553Z AUTO 16004KT 9SM CLR 16/02 A2998 RMK AO2 SLP111 T01560022 10272 20156 403060156 51013
KMAF 250453Z AUTO 00000KT 10SM CLR 18/01 A2998 RMK AO2 SLP109 T01830011
KMAF 250353Z 31003KT 10SM CLR 19/01 A2996 RMK AO2 SLP104 T01940011
KMAF 250253Z 27005KT 10SM CLR 17/02 A2994 RMK AO2 SLP103 T01720017 51017
KMAF 250211Z 00000KT 10SM CLR 21/01 A2993 RMK AO2 T02110011
KMAF 250203Z 00000KT 1 3/4SM HZ CLR 21/01 A2993 RMK AO2 T02060011
KMAF 250153Z 00000KT 10SM CLR 22/01 A2993 RMK AO2 SLP098 T02170011
KMAF 250053Z 23004KT 10SM CLR 24/01 A2991 RMK AO2 SLP090 T02390006
KMAF 242353Z 24006KT 6SM HZ CLR 28/00 A2988 RMK AO2 SLP078 T02780000 10306 20278 53003
KMAF 242253Z 22005KT 10SM CLR 29/01 A2988 RMK AO2 SLP073 T02940006
KMAF 242153Z 26007KT 9SM CLR 31/00 A2988 RMK AO2 SLP072 T03060000
KMAF 242053Z VRB04KT 10SM CLR 30/00 A2987 RMK AO2 SLP071 T03000000 56013
KMAF 241953Z 25007KT 10SM CLR 29/01 A2988 RMK AO2 SLP072 T02940011
KMAF 241853Z 29006KT 10SM CLR 29/01 A2990 RMK AO2 SLP077 T02890011
KMAF 241753Z 26007KT 10SM CLR 28/02 A2991 RMK AO2 SLP084 T02830017 10283 20161 58002
KMAF 241653Z 28009KT 250V330 10SM CLR 27/03 A2993 RMK AO2 SLP091 T02720028
KMAF 241553Z 24011KT 10SM CLR 24/07 A2993 RMK AO2 SLP093 T02440067
KMAF 241453Z 22011KT 10SM CLR 20/13 A2992 RMK AO2 SLP092 T02000133 53018
KMAF 241353Z 23007KT 10SM CLR 17/15 A2989 RMK AO2 SLP086 T01720150
KMAF 241253Z 21006KT 10SM CLR 17/14 A2987 RMK AO2 SLP077 T01720144
KMAF 241153Z 24006KT 10SM CLR 17/14 A2986 RMK AO2 SLP072 T01670144 10211 20167 53013